Time;durP1;ratioP1;P1;durP2;ratioP2;P2;SDS_P1;SDS_P2;PMS_P1;PMS_P2;Temp;Humidity;BMP_temperature;BMP_pressure;BME280_temperature;BME280_humidity;BME280_pressure;Samples;Min_cycle;Max_cycle;Signal;HPM_P1;HPM_P2
2022/09/08 00:01:58;;;;;;;7.00;3.00;;;;;;;8.72;62.05;100674.20;89051;1264;93717;-59
2022/09/08 00:04:08;;;;;;;4.80;2.60;;;;;;;8.67;62.06;100675.27;89021;1264;79253;-59
2022/09/08 00:06:20;;;;;;;4.90;2.50;;;;;;;8.64;61.99;100677.94;89016;1267;82172;-59
2022/09/08 00:08:30;;;;;;;4.80;2.40;;;;;;;8.61;62.30;100670.73;89085;1263;98980;-57
2022/09/08 00:10:39;;;;;;;5.40;2.70;;;;;;;8.59;62.23;100671.31;89075;1264;88611;-56
2022/09/08 00:12:48;;;;;;;4.20;2.50;;;;;;;8.55;62.32;100671.19;89045;1264;94494;-58
2022/09/08 00:14:58;;;;;;;6.40;2.60;;;;;;;8.50;62.51;100671.42;89038;1264;79091;-57
2022/09/08 00:17:10;;;;;;;5.10;2.60;;;;;;;8.45;62.67;100669.00;89137;1264;81991;-58
2022/09/08 00:19:18;;;;;;;5.20;3.00;;;;;;;8.43;62.90;100663.59;89093;1264;98763;-57
2022/09/08 00:21:29;;;;;;;5.10;2.60;;;;;;;8.40;62.99;100662.71;89048;1264;88713;-57
2022/09/08 00:23:38;;;;;;;5.40;2.30;;;;;;;8.40;63.27;100661.06;89062;1264;93891;-59
2022/09/08 00:25:48;;;;;;;5.50;2.60;;;;;;;8.39;63.41;100661.36;89075;1264;82286;-59
2022/09/08 00:27:56;;;;;;;4.90;2.20;;;;;;;8.36;63.64;100667.06;89047;1264;79567;-60
2022/09/08 00:30:07;;;;;;;5.10;2.80;;;;;;;8.37;63.75;100671.80;89033;1264;97427;-60
2022/09/08 00:32:20;;;;;;;6.30;2.60;;;;;;;8.39;63.96;100676.08;89049;1264;86564;-57
2022/09/08 00:34:30;;;;;;;3.90;2.60;;;;;;;8.41;63.98;100674.23;88961;1264;94802;-57
2022/09/08 00:36:40;;;;;;;6.30;2.20;;;;;;;8.41;64.17;100675.13;89002;1264;79866;-56
2022/09/08 00:38:55;;;;;;;4.10;2.60;;;;;;;8.40;64.22;100677.77;89043;1264;83077;-56
2022/09/08 00:41:12;;;;;;;3.60;2.50;;;;;;;8.37;64.36;100675.63;89002;1264;99694;-57
2022/09/08 00:43:43;;;;;;;5.20;2.60;;;;;;;8.33;64.35;100676.59;89034;1264;89094;-60
2022/09/08 00:45:52;;;;;;;6.80;2.90;;;;;;;8.31;64.61;100666.25;89037;1264;95166;-60
2022/09/08 00:48:04;;;;;;;5.90;3.10;;;;;;;8.30;64.52;100663.11;89041;1264;79734;-55
2022/09/08 00:50:21;;;;;;;7.20;3.00;;;;;;;8.29;64.68;100661.55;89043;1264;81307;-56
2022/09/08 00:52:36;;;;;;;4.00;2.20;;;;;;;8.27;64.78;100654.42;89061;1264;99690;-57
2022/09/08 00:54:46;;;;;;;4.40;2.40;;;;;;;8.27;64.83;100651.34;89087;1264;87959;-57
2022/09/08 00:56:58;;;;;;;5.90;2.60;;;;;;;8.29;64.77;100652.21;89039;1264;93735;-56
2022/09/08 00:59:08;;;;;;;6.60;2.50;;;;;;;8.30;64.99;100650.46;89046;1264;78381;-56
2022/09/08 01:01:17;;;;;;;4.20;3.00;;;;;;;8.30;64.99;100648.91;89066;1266;82097;-57
2022/09/08 01:03:26;;;;;;;4.50;2.40;;;;;;;8.32;65.11;100647.10;89061;1264;98056;-56
2022/09/08 01:05:46;;;;;;;5.90;2.60;;;;;;;8.32;64.98;100646.89;89027;1264;88295;-57
2022/09/08 01:13:21;;;;;;;4.60;2.80;;;;;;;8.19;65.19;100649.92;89056;1264;81346;-56
2022/09/08 01:15:31;;;;;;;5.60;3.00;;;;;;;8.14;65.33;100649.60;89047;1264;98421;-57
2022/09/08 01:17:41;;;;;;;6.30;2.50;;;;;;;8.09;65.25;100648.52;89037;1264;87536;-60
2022/09/08 01:19:51;;;;;;;5.90;2.80;;;;;;;8.03;65.09;100649.52;88980;1264;94415;-59
2022/09/08 01:22:22;;;;;;;5.20;2.70;;;;;;;8.00;65.20;100648.64;89041;1264;81416;-57
2022/09/08 01:24:47;;;;;;;4.80;2.70;;;;;;;7.96;65.43;100650.69;89006;1266;82643;-55
2022/09/08 01:27:22;;;;;;;6.30;2.90;;;;;;;7.92;65.48;100647.17;89067;1264;99085;-57
2022/09/08 01:29:32;;;;;;;8.20;2.90;;;;;;;7.91;65.70;100642.84;89061;1264;87021;-56
2022/09/08 01:31:45;;;;;;;4.90;2.80;;;;;;;7.92;65.65;100645.40;89074;1264;95309;-56
2022/09/08 01:33:54;;;;;;;5.00;2.60;;;;;;;7.94;65.68;100648.98;89086;1264;79628;-56
2022/09/08 01:36:09;;;;;;;6.70;2.80;;;;;;;7.95;65.87;100651.48;89082;1264;82971;-55
2022/09/08 01:38:18;;;;;;;5.00;2.80;;;;;;;7.93;65.83;100653.65;89095;1264;98847;-58
2022/09/08 01:40:27;;;;;;;7.00;3.20;;;;;;;7.92;66.03;100649.48;89100;1264;88259;-56
2022/09/08 01:42:36;;;;;;;6.10;3.20;;;;;;;7.88;66.11;100649.73;89119;1264;93096;-59
2022/09/08 01:44:45;;;;;;;4.10;2.90;;;;;;;7.84;65.89;100651.47;89050;1264;79990;-58
2022/09/08 01:46:56;;;;;;;6.80;3.30;;;;;;;7.78;66.11;100653.02;89071;1264;81778;-58
2022/09/08 01:49:05;;;;;;;4.50;2.90;;;;;;;7.72;66.06;100649.27;89041;1264;98561;-57
2022/09/08 01:51:15;;;;;;;6.30;2.80;;;;;;;7.66;66.16;100649.29;89054;1264;87643;-56
2022/09/08 01:53:24;;;;;;;5.70;2.90;;;;;;;7.65;66.14;100652.95;89114;1264;94908;-60
2022/09/08 01:55:34;;;;;;;7.80;2.40;;;;;;;7.62;66.24;100649.48;89047;1264;80332;-59
2022/09/08 01:57:45;;;;;;;4.40;2.60;;;;;;;7.60;66.36;100649.04;89052;1264;82801;-56
2022/09/08 01:59:53;;;;;;;7.60;2.80;;;;;;;7.60;66.36;100645.79;89045;1264;98436;-56
2022/09/08 02:02:03;;;;;;;5.30;2.90;;;;;;;7.66;66.27;100643.10;89110;1264;88115;-59
2022/09/08 02:04:12;;;;;;;6.70;3.10;;;;;;;7.77;66.31;100641.67;88992;1264;95052;-60
2022/09/08 02:06:22;;;;;;;6.10;3.00;;;;;;;7.81;66.34;100646.59;89054;1264;80623;-60
2022/09/08 02:08:31;;;;;;;7.00;3.40;;;;;;;7.80;66.21;100649.41;89077;1264;82252;-57
2022/09/08 02:10:41;;;;;;;4.80;2.90;;;;;;;7.79;66.28;100646.86;89094;1264;99674;-57
2022/09/08 02:12:52;;;;;;;5.40;3.10;;;;;;;7.81;66.20;100638.93;89062;1264;88150;-59
2022/09/08 02:15:01;;;;;;;4.50;2.80;;;;;;;7.85;66.06;100637.52;89078;1264;95815;-59
2022/09/08 02:17:09;;;;;;;7.60;3.00;;;;;;;7.86;66.16;100638.38;89141;1264;80141;-55
2022/09/08 02:19:18;;;;;;;5.70;3.00;;;;;;;7.87;66.17;100641.83;89121;1264;82545;-55
2022/09/08 02:21:28;;;;;;;5.40;3.30;;;;;;;7.88;66.08;100640.46;89098;1264;98934;-55
2022/09/08 02:23:39;;;;;;;6.50;3.10;;;;;;;7.84;66.07;100640.48;89139;1264;88605;-59
2022/09/08 02:25:48;;;;;;;4.20;2.50;;;;;;;7.81;65.98;100639.65;89082;1264;93998;-59
2022/09/08 02:27:57;;;;;;;5.80;2.90;;;;;;;7.78;65.99;100647.42;89044;1264;79943;-59
2022/09/08 02:30:08;;;;;;;7.40;3.70;;;;;;;7.77;66.16;100648.51;89019;1264;81785;-58
2022/09/08 02:32:17;;;;;;;6.20;3.90;;;;;;;7.74;66.02;100655.39;89063;1264;99693;-56
2022/09/08 02:34:28;;;;;;;6.60;2.70;;;;;;;7.73;66.18;100660.19;89047;1264;87806;-55
2022/09/08 02:36:41;;;;;;;6.00;3.10;;;;;;;7.74;66.09;100661.34;89025;1264;94881;-55
2022/09/08 02:38:54;;;;;;;6.60;3.80;;;;;;;7.73;66.21;100661.25;89079;1264;79196;-55
2022/09/08 02:41:02;;;;;;;;;;;;;;;7.69;66.21;100662.34;89075;1263;81530;-55
2022/09/08 02:43:17;;;;;;;6.80;3.40;;;;;;;7.65;66.38;100660.61;89052;1264;98466;-56
2022/09/08 02:45:26;;;;;;;5.60;2.90;;;;;;;7.62;66.43;100660.09;89061;1264;88980;-56
2022/09/08 02:47:39;;;;;;;6.30;3.20;;;;;;;7.60;66.44;100654.25;89051;1264;93255;-56
2022/09/08 02:49:48;;;;;;;4.50;2.70;;;;;;;7.57;66.49;100650.07;89058;1264;79243;-57
2022/09/08 02:51:57;;;;;;;6.30;3.10;;;;;;;7.52;66.72;100652.01;88968;1264;82042;-58
2022/09/08 02:54:10;;;;;;;6.80;3.00;;;;;;;7.48;66.84;100648.48;89059;1264;99616;-58
2022/09/08 02:56:19;;;;;;;5.90;3.20;;;;;;;7.45;66.82;100648.83;88956;1265;88875;-57
2022/09/08 02:58:29;;;;;;;6.90;2.80;;;;;;;7.46;66.73;100655.05;88975;1265;93702;-56
2022/09/08 03:00:39;;;;;;;5.90;2.80;;;;;;;7.44;66.98;100652.90;89017;1267;79621;-55
2022/09/08 03:02:51;;;;;;;6.30;2.70;;;;;;;7.42;67.17;100654.16;88995;1266;82546;-55
2022/09/08 03:05:00;;;;;;;5.90;2.70;;;;;;;7.43;67.08;100653.90;88978;1266;97874;-53
2022/09/08 03:07:10;;;;;;;6.70;3.30;;;;;;;7.45;67.13;100656.36;88962;1265;88860;-57
2022/09/08 03:09:20;;;;;;;5.90;3.20;;;;;;;7.45;67.30;100656.70;89027;1264;95220;-59
2022/09/08 03:11:31;;;;;;;5.60;3.00;;;;;;;7.42;67.30;100655.10;88947;1266;79265;-59
2022/09/08 03:13:41;;;;;;;5.20;2.90;;;;;;;7.40;67.38;100654.75;88997;1266;82940;-57
2022/09/08 03:15:50;;;;;;;6.20;3.30;;;;;;;7.38;67.41;100646.78;88988;1265;97959;-57
2022/09/08 03:18:03;;;;;;;7.50;3.60;;;;;;;7.37;67.29;100644.86;88968;1265;88063;-56
2022/09/08 03:20:14;;;;;;;6.70;3.80;;;;;;;7.38;67.24;100643.22;88971;1264;94541;-57
2022/09/08 03:22:23;;;;;;;5.40;3.30;;;;;;;7.37;67.24;100645.57;89008;1265;78108;-57
2022/09/08 03:24:33;;;;;;;6.20;3.30;;;;;;;7.38;67.17;100642.59;88973;1266;81095;-56
2022/09/08 03:26:42;;;;;;;6.40;3.40;;;;;;;7.36;67.25;100639.92;89004;1264;99466;-58
2022/09/08 03:28:52;;;;;;;5.10;3.20;;;;;;;7.34;67.36;100640.86;88986;1265;87434;-58
2022/09/08 03:31:01;;;;;;;8.30;3.80;;;;;;;7.33;67.28;100642.84;88953;1265;95129;-58
2022/09/08 03:33:10;;;;;;;6.10;3.30;;;;;;;7.30;67.51;100636.52;89016;1266;79609;-56
2022/09/08 03:35:23;;;;;;;5.60;3.60;;;;;;;7.30;67.51;100635.09;88985;1265;82862;-57
2022/09/08 03:37:34;;;;;;;7.60;3.50;;;;;;;7.30;67.57;100633.08;89005;1264;99722;-58
2022/09/08 03:39:45;;;;;;;5.40;3.30;;;;;;;7.33;67.51;100634.61;88958;1266;87962;-60
2022/09/08 03:41:54;;;;;;;6.00;3.30;;;;;;;7.34;67.63;100630.34;88978;1264;94343;-58
2022/09/08 03:44:04;;;;;;;6.70;3.50;;;;;;;7.33;67.46;100633.88;89001;1266;79600;-58
2022/09/08 03:46:15;;;;;;;6.10;3.80;;;;;;;7.31;67.49;100634.94;89002;1266;81418;-59
2022/09/08 03:48:24;;;;;;;6.70;3.90;;;;;;;7.28;67.47;100633.34;88970;1265;99711;-58
2022/09/08 03:50:34;;;;;;;6.80;4.10;;;;;;;7.28;67.26;100634.92;89015;1265;88695;-60
2022/09/08 03:52:45;;;;;;;8.40;4.00;;;;;;;7.34;67.32;100638.75;88966;1265;95091;-59
2022/09/08 03:54:55;;;;;;;6.90;3.60;;;;;;;7.40;67.17;100640.48;88970;1257;76955;-59
2022/09/08 03:57:05;;;;;;;8.20;3.70;;;;;;;7.43;66.92;100643.55;88970;1265;81176;-56
2022/09/08 03:59:14;;;;;;;9.80;3.80;;;;;;;7.45;66.75;100645.44;89016;1265;100563;-57
2022/09/08 04:01:24;;;;;;;6.90;3.20;;;;;;;7.45;66.92;100646.55;88981;1264;87273;-55
2022/09/08 04:03:33;;;;;;;8.30;3.90;;;;;;;7.45;66.83;100645.84;88950;1265;94251;-55
2022/09/08 04:05:46;;;;;;;6.90;3.40;;;;;;;7.44;66.95;100645.06;88945;1265;81763;-56
2022/09/08 04:07:56;;;;;;;6.40;3.10;;;;;;;7.45;67.05;100644.59;89004;1265;81617;-54
2022/09/08 04:10:07;;;;;;;7.60;3.60;;;;;;;7.49;66.87;100639.98;88992;1265;99460;-56
2022/09/08 04:12:16;;;;;;;7.00;4.00;;;;;;;7.51;66.90;100640.17;88981;1264;87976;-55
2022/09/08 04:14:28;;;;;;;7.80;3.20;;;;;;;7.53;66.78;100642.60;88985;1265;93743;-55
2022/09/08 04:16:38;;;;;;;7.00;3.90;;;;;;;7.60;66.92;100638.45;88907;1265;79431;-55
2022/09/08 04:18:46;;;;;;;8.50;3.70;;;;;;;7.68;66.80;100635.45;88998;1265;83036;-59
2022/09/08 04:21:04;;;;;;;6.10;3.90;;;;;;;7.78;66.65;100636.73;88965;1265;99029;-60
2022/09/08 04:23:13;;;;;;;7.00;3.50;;;;;;;7.86;66.31;100640.65;89014;1265;87726;-56
2022/09/08 04:25:24;;;;;;;7.40;3.90;;;;;;;7.92;66.20;100637.44;88979;1265;95566;-56
2022/09/08 04:27:32;;;;;;;7.00;3.20;;;;;;;7.99;66.01;100636.20;89031;1265;79389;-56
2022/09/08 04:29:42;;;;;;;6.20;3.80;;;;;;;8.05;65.74;100635.02;89012;1265;82002;-56
2022/09/08 04:31:51;;;;;;;8.90;3.00;;;;;;;8.10;65.56;100634.92;88985;1265;96507;-59
2022/09/08 04:34:00;;;;;;;8.10;4.40;;;;;;;8.16;65.52;100635.04;88998;1265;88785;-60
2022/09/08 04:36:16;;;;;;;7.10;3.20;;;;;;;8.22;65.33;100633.21;89005;1265;94297;-59
2022/09/08 04:38:24;;;;;;;7.70;3.30;;;;;;;8.28;65.16;100630.03;89005;1264;78823;-60
2022/09/08 04:40:36;;;;;;;7.90;3.80;;;;;;;8.35;65.18;100628.23;89015;1265;81310;-60
2022/09/08 04:42:49;;;;;;;5.80;3.20;;;;;;;8.43;64.97;100625.36;89018;1265;97402;-59
2022/09/08 04:44:59;;;;;;;7.10;3.40;;;;;;;8.52;64.76;100631.88;89009;1265;86627;-61
2022/09/08 04:47:11;;;;;;;8.40;3.20;;;;;;;8.61;64.61;100639.48;88962;1265;94423;-56
2022/09/08 04:49:24;;;;;;;9.50;3.40;;;;;;;8.71;64.41;100639.22;89039;1265;77843;-57
2022/09/08 04:51:36;;;;;;;6.20;3.00;;;;;;;8.80;64.45;100637.55;88985;1267;81560;-55
2022/09/08 04:53:46;;;;;;;7.40;3.30;;;;;;;8.92;64.28;100637.98;88992;1265;99260;-56
2022/09/08 04:55:58;;;;;;;7.90;3.10;;;;;;;9.06;64.09;100637.84;88961;1265;88161;-56
2022/09/08 04:58:08;;;;;;;8.70;3.90;;;;;;;9.19;63.90;100640.40;88981;1264;95201;-59
2022/09/08 05:00:19;;;;;;;6.50;3.40;;;;;;;9.35;63.64;100633.34;88938;1264;80509;-60
2022/09/08 05:02:29;;;;;;;7.00;3.10;;;;;;;9.52;63.46;100635.19;88962;1265;81842;-56
2022/09/08 05:04:37;;;;;;;6.50;3.70;;;;;;;9.65;63.29;100634.33;88966;1265;99303;-56
2022/09/08 05:06:46;;;;;;;9.90;3.60;;;;;;;9.78;63.13;100635.66;88948;1265;87934;-56
2022/09/08 05:08:57;;;;;;;10.50;3.70;;;;;;;9.93;62.87;100637.39;88970;1265;94766;-55
2022/09/08 05:11:06;;;;;;;5.00;3.10;;;;;;;10.06;62.48;100635.60;88956;1265;79839;-56
2022/09/08 05:13:16;;;;;;;6.60;2.90;;;;;;;10.20;62.15;100635.63;88958;1265;83109;-59
2022/09/08 05:15:28;;;;;;;8.80;3.50;;;;;;;10.36;61.87;100638.23;88991;1265;98766;-58
2022/09/08 05:17:38;;;;;;;7.10;3.30;;;;;;;10.53;61.67;100637.11;89045;1265;86758;-57
2022/09/08 05:19:51;;;;;;;9.90;3.30;;;;;;;11.32;61.91;100635.86;89429;1260;93939;-59
2022/09/08 05:22:01;;;;;;;7.70;3.40;;;;;;;13.56;60.98;100637.05;89504;1260;79466;-59
2022/09/08 05:24:12;;;;;;;6.60;3.30;;;;;;;15.69;58.74;100637.98;89535;1260;82267;-58
2022/09/08 05:26:22;;;;;;;7.70;3.60;;;;;;;17.50;56.37;100636.56;89502;1260;98889;-58
2022/09/08 05:28:37;;;;;;;8.60;3.60;;;;;;;19.03;54.60;100638.87;89539;1260;88795;-57
2022/09/08 05:30:46;;;;;;;9.20;4.30;;;;;;;20.41;52.12;100631.96;89494;1260;93687;-58
2022/09/08 05:33:04;;;;;;;8.50;2.90;;;;;;;21.49;49.78;100626.00;89538;1260;79807;-54
2022/09/08 05:35:17;;;;;;;7.90;3.40;;;;;;;22.02;48.18;100626.70;89539;1260;82150;-56
2022/09/08 05:37:29;;;;;;;6.60;3.40;;;;;;;23.03;45.66;100629.28;89562;1260;99480;-58
2022/09/08 05:39:39;;;;;;;7.20;3.20;;;;;;;23.15;43.68;100631.39;89215;1263;89345;-57
2022/09/08 05:41:48;;;;;;;7.00;3.60;;;;;;;22.96;42.56;100625.82;89477;1260;95152;-57
2022/09/08 05:43:59;;;;;;;6.90;3.30;;;;;;;22.62;41.22;100620.46;89502;1260;79714;-62
2022/09/08 05:46:09;;;;;;;8.60;3.40;;;;;;;22.06;41.54;100618.54;89527;1260;82092;-59
2022/09/08 05:48:17;;;;;;;8.30;2.90;;;;;;;21.18;41.28;100624.61;89534;1260;98086;-59
2022/09/08 05:50:26;;;;;;;8.00;4.10;;;;;;;20.53;41.38;100626.77;89502;1260;87374;-54
2022/09/08 05:52:38;;;;;;;7.50;3.20;;;;;;;20.58;41.40;100625.88;89504;1260;94234;-54
2022/09/08 05:54:47;;;;;;;7.90;3.30;;;;;;;22.15;41.11;100619.92;89486;1260;80207;-59
2022/09/08 05:56:57;;;;;;;7.50;3.80;;;;;;;23.82;39.57;100612.36;89495;1260;82942;-59
2022/09/08 05:59:11;;;;;;;7.50;3.60;;;;;;;25.03;38.51;100604.87;89514;1260;99264;-55
2022/09/08 06:01:20;;;;;;;7.20;3.00;;;;;;;25.71;37.16;100602.36;89498;1260;87036;-56
2022/09/08 06:03:31;;;;;;;8.80;3.50;;;;;;;26.44;36.29;100599.33;89492;1260;93461;-57
2022/09/08 06:05:41;;;;;;;6.90;3.60;;;;;;;27.08;34.31;100605.20;89480;1260;79296;-56
2022/09/08 06:07:52;;;;;;;8.00;3.60;;;;;;;26.93;34.07;100606.90;89518;1260;82142;-57
2022/09/08 06:10:05;;;;;;;10.00;3.60;;;;;;;27.16;33.21;100611.00;89540;1260;99606;-60
2022/09/08 06:12:15;;;;;;;10.30;3.50;;;;;;;27.50;32.52;100609.36;89528;1260;88328;-60
2022/09/08 06:14:28;;;;;;;8.30;3.30;;;;;;;27.11;30.28;100609.27;89455;1260;94363;-56
2022/09/08 06:16:37;;;;;;;6.30;3.00;;;;;;;26.80;30.53;100610.17;89541;1260;80679;-56
2022/09/08 06:18:47;;;;;;;8.50;3.20;;;;;;;26.22;30.11;100604.58;89492;1260;82757;-58
2022/09/08 06:20:57;;;;;;;10.90;4.20;;;;;;;24.90;30.82;100605.77;89505;1260;97870;-60
2022/09/08 06:23:09;;;;;;;8.10;3.30;;;;;;;23.91;30.93;100602.02;89577;1260;88808;-59
2022/09/08 06:25:23;;;;;;;4.90;2.90;;;;;;;23.03;31.72;100608.94;89519;1260;93237;-58
2022/09/08 06:27:45;;;;;;;7.10;3.00;;;;;;;22.63;32.12;100604.13;89475;1260;79460;-58
2022/09/08 06:30:11;;;;;;;7.30;3.10;;;;;;;22.02;32.94;100601.22;89484;1260;83482;-58
2022/09/08 06:32:30;;;;;;;9.00;3.60;;;;;;;21.35;32.99;100600.02;89460;1260;99090;-58
2022/09/08 06:34:45;;;;;;;7.90;3.30;;;;;;;20.74;33.24;100604.89;89472;1260;88962;-57
2022/09/08 06:37:01;;;;;;;6.10;3.00;;;;;;;20.54;34.02;100603.25;89483;1260;95431;-57
2022/09/08 06:39:20;;;;;;;6.90;3.00;;;;;;;20.27;34.30;100605.57;89494;1260;80308;-56
2022/09/08 06:41:42;;;;;;;6.70;3.10;;;;;;;20.01;34.57;100608.05;89489;1260;80399;-59
2022/09/08 06:43:57;;;;;;;6.70;3.10;;;;;;;19.83;34.82;100611.74;89510;1260;98207;-55
2022/09/08 06:46:19;;;;;;;9.80;3.90;;;;;;;19.66;35.29;100605.77;89512;1260;88198;-55
2022/09/08 06:48:33;;;;;;;7.40;3.00;;;;;;;19.83;35.37;100608.02;89501;1260;94714;-54
2022/09/08 06:50:59;;;;;;;6.90;3.10;;;;;;;20.07;35.54;100605.17;89513;1260;79633;-55
2022/09/08 06:53:17;;;;;;;4.90;2.40;;;;;;;20.34;35.30;100610.58;89510;1260;82730;-55
2022/09/08 06:55:38;;;;;;;4.60;2.60;;;;;;;20.41;34.97;100616.96;89523;1260;98341;-55
2022/09/08 06:58:03;;;;;;;10.60;3.00;;;;;;;20.32;34.82;100618.67;89509;1260;88708;-55
2022/09/08 07:00:22;;;;;;;5.60;2.50;;;;;;;20.21;34.64;100623.71;89515;1260;94315;-57
2022/09/08 07:02:56;;;;;;;7.40;3.10;;;;;;;20.39;34.30;100625.05;89514;1260;80086;-57
2022/09/08 07:05:23;;;;;;;6.30;3.10;;;;;;;20.69;34.64;100629.40;89501;1260;81809;-60
2022/09/08 07:07:43;;;;;;;5.60;2.60;;;;;;;21.47;34.25;100626.02;89543;1260;99722;-60
2022/09/08 07:10:03;;;;;;;4.80;2.40;;;;;;;22.20;34.06;100629.59;89543;1260;88705;-54
2022/09/08 07:12:29;;;;;;;7.30;2.80;;;;;;;22.76;33.72;100637.89;89507;1260;94510;-55
2022/09/08 07:15:27;;;;;;;7.20;2.50;;;;;;;22.74;32.09;100634.73;89490;1260;80298;-55
2022/09/08 07:17:44;;;;;;;5.10;2.50;;;;;;;22.50;31.95;100627.48;89204;1263;81844;-55
2022/09/08 07:19:55;;;;;;;5.90;2.80;;;;;;;21.97;32.37;100627.04;89493;1260;99150;-57
2022/09/08 07:22:12;;;;;;;6.10;2.60;;;;;;;21.60;32.65;100625.80;89532;1260;88398;-57
2022/09/08 07:24:28;;;;;;;9.10;2.90;;;;;;;21.18;32.83;100628.85;89513;1260;93934;-58
2022/09/08 07:26:46;;;;;;;5.50;3.00;;;;;;;20.83;33.29;100627.15;89484;1260;79290;-59
2022/09/08 07:28:59;;;;;;;7.10;2.90;;;;;;;20.93;33.63;100627.16;89456;1260;81305;-58
2022/09/08 07:31:22;;;;;;;4.90;2.50;;;;;;;21.36;33.60;100620.91;89486;1260;99149;-58
2022/09/08 07:33:35;;;;;;;4.90;2.90;;;;;;;21.39;32.70;100619.65;89520;1260;88613;-57
2022/09/08 07:35:53;;;;;;;;;;;;;;;21.50;32.90;100613.81;89486;1260;94100;-57
2022/09/08 07:38:11;;;;;;;3.50;2.50;;;;;;;21.75;32.42;100615.59;89484;1260;78057;-57
2022/09/08 07:40:26;;;;;;;5.20;2.40;;;;;;;22.44;32.20;100618.88;89544;1260;80224;-57
2022/09/08 07:42:35;;;;;;;5.00;2.50;;;;;;;23.37;31.59;100624.09;89506;1260;97893;-56
2022/09/08 07:44:46;;;;;;;4.00;2.60;;;;;;;24.25;31.18;100620.44;89539;1260;87439;-57
2022/09/08 07:47:18;;;;;;;6.30;2.60;;;;;;;25.40;30.98;100618.02;89572;1260;94663;-57
2022/09/08 07:49:40;;;;;;;4.90;2.50;;;;;;;26.01;29.55;100624.70;89583;1260;79160;-56
2022/09/08 07:51:59;;;;;;;5.50;2.70;;;;;;;26.47;28.56;100627.30;89550;1260;82377;-56
2022/09/08 07:54:31;;;;;;;4.90;2.10;;;;;;;27.24;28.31;100637.38;89179;1260;512621;-60
2022/09/08 07:56:47;;;;;;;5.10;2.40;;;;;;;28.16;28.19;100636.44;89562;1260;88159;-59
2022/09/08 07:59:17;;;;;;;4.50;2.60;;;;;;;28.81;26.86;100635.27;89233;1261;94774;-57
2022/09/08 08:01:39;;;;;;;4.60;2.60;;;;;;;29.26;26.18;100639.54;89471;1260;79535;-57
2022/09/08 08:04:00;;;;;;;5.70;2.30;;;;;;;29.07;25.17;100640.14;89516;1260;81867;-59
2022/09/08 08:06:18;;;;;;;7.70;2.80;;;;;;;29.09;25.89;100625.53;89494;1260;99642;-60
2022/09/08 08:08:41;;;;;;;5.40;2.20;;;;;;;29.70;25.67;100620.29;89533;1260;86941;-58
2022/09/08 08:11:06;;;;;;;4.60;2.40;;;;;;;30.14;24.31;100619.55;89493;1260;94970;-58
2022/09/08 08:13:31;;;;;;;4.50;2.40;;;;;;;30.24;23.69;100629.48;89517;1260;79970;-58
2022/09/08 08:15:47;;;;;;;5.20;2.20;;;;;;;30.24;23.88;100632.14;89508;1260;81058;-60
2022/09/08 08:18:11;;;;;;;4.60;2.40;;;;;;;30.34;23.15;100625.17;89478;1260;99109;-60
2022/09/08 08:20:41;;;;;;;8.50;2.20;;;;;;;30.60;23.26;100620.02;89528;1260;87662;-55
2022/09/08 08:23:35;;;;;;;3.30;2.00;;;;;;;30.87;23.41;100613.92;89532;1253;95117;-55
2022/09/08 08:25:52;;;;;;;;;;;;;;;31.03;23.37;100612.27;89387;1260;79369;-57
2022/09/08 08:28:11;;;;;;;6.60;2.30;;;;;;;30.93;22.87;100606.26;89459;1260;82178;-59
2022/09/08 08:30:23;;;;;;;5.20;2.40;;;;;;;31.15;22.55;100609.95;89565;1260;97491;-59
2022/09/08 08:32:39;;;;;;;5.10;2.70;;;;;;;31.06;22.73;100607.98;89549;1260;87654;-60
2022/09/08 08:34:54;;;;;;;5.30;1.90;;;;;;;31.24;22.11;100608.17;89519;1260;94690;-58
2022/09/08 08:37:07;;;;;;;4.00;2.10;;;;;;;30.86;21.54;100616.08;89542;1260;80606;-57
2022/09/08 08:39:22;;;;;;;4.90;2.30;;;;;;;30.77;21.37;100619.17;89507;1260;82607;-56
2022/09/08 08:41:42;;;;;;;7.60;2.10;;;;;;;30.17;20.99;100622.78;89527;1260;100176;-57
2022/09/08 08:44:15;;;;;;;3.40;2.10;;;;;;;30.12;21.77;100618.94;89539;1260;87293;-56
2022/09/08 08:46:46;;;;;;;5.20;2.60;;;;;;;30.46;21.11;100622.05;89488;1260;95372;-59
2022/09/08 08:49:12;;;;;;;6.40;2.20;;;;;;;30.45;21.31;100619.26;89354;1260;79132;-60
2022/09/08 08:51:56;;;;;;;6.60;1.90;;;;;;;29.89;20.94;100612.39;89511;1260;81633;-60
2022/09/08 08:54:37;;;;;;;3.90;1.90;;;;;;;29.94;21.56;100608.60;89489;1260;99589;-58
2022/09/08 08:56:50;;;;;;;4.60;2.00;;;;;;;29.73;21.61;100605.97;89494;1260;89498;-58
2022/09/08 08:59:23;;;;;;;6.50;2.30;;;;;;;29.58;21.38;100606.62;89490;1260;95358;-59
2022/09/08 09:01:47;;;;;;;5.10;2.40;;;;;;;29.73;21.27;100605.40;89051;1262;81507;-58
2022/09/08 09:04:24;;;;;;;4.70;2.00;;;;;;;29.70;21.03;100603.35;89482;1260;81542;-57
2022/09/08 09:07:03;;;;;;;4.30;2.10;;;;;;;29.58;20.78;100601.36;89455;1260;98639;-57
2022/09/08 09:09:51;;;;;;;4.20;1.90;;;;;;;28.90;20.67;100593.33;89488;1260;89145;-60
2022/09/08 09:12:19;;;;;;;5.00;2.60;;;;;;;28.05;21.13;100596.42;89391;1260;94871;-59
2022/09/08 09:14:54;;;;;;;4.00;2.10;;;;;;;27.81;21.20;100591.59;89521;1260;80861;-55
2022/09/08 09:17:32;;;;;;;4.20;2.20;;;;;;;28.03;21.71;100593.84;89540;1260;82900;-54
2022/09/08 09:20:11;;;;;;;3.50;2.00;;;;;;;28.16;21.83;100586.32;89549;1260;98540;-58
2022/09/08 09:22:36;;;;;;;5.30;2.10;;;;;;;28.45;22.18;100583.09;89518;1260;88064;-58
2022/09/08 09:25:03;;;;;;;3.60;2.00;;;;;;;28.69;22.03;100579.20;89529;1260;94908;-55
2022/09/08 09:27:37;;;;;;;3.40;2.00;;;;;;;28.43;21.89;100575.89;89541;1260;77854;-55
2022/09/08 09:29:45;;;;;;;;;;;;;;;27.80;22.04;100569.17;89540;1260;81277;-59
2022/09/08 09:32:26;;;;;;;;;;;;;;;27.48;22.86;100567.03;89568;1260;98333;-59
2022/09/08 09:34:50;;;;;;;;;;;;;;;27.21;22.86;100559.79;89566;1260;86310;-56
2022/09/08 09:37:10;;;;;;;;;;;;;;;26.89;23.71;100567.47;89529;1260;94485;-55
2022/09/08 09:39:38;;;;;;;;;;;;;;;26.28;23.69;100567.58;89477;1260;80501;-55
2022/09/08 09:42:10;;;;;;;;;;;;;;;25.86;24.15;100561.50;89094;1262;82634;-55
2022/09/08 09:44:37;;;;;;;;;;;;;;;25.53;24.57;100552.86;89259;1260;99694;-60
2022/09/08 09:47:09;;;;;;;;;;;;;;;25.33;24.95;100552.15;89529;1260;88197;-60
2022/09/08 09:49:42;;;;;;;;;;;;;;;25.10;25.42;100548.91;89481;1260;94433;-56
2022/09/08 09:52:00;;;;;;;;;;;;;;;24.85;25.77;100542.63;89493;1260;79727;-54
2022/09/08 09:54:31;;;;;;;;;;;;;;;24.24;25.97;100542.98;89490;1260;82624;-58
2022/09/08 09:57:09;;;;;;;;;;;;;;;23.76;26.56;100544.94;89515;1260;99491;-58
2022/09/08 09:59:55;;;;;;;;;;;;;;;23.62;26.87;100547.88;89533;1260;88773;-59
2022/09/08 10:02:24;;;;;;;;;;;;;;;23.51;26.90;100555.78;89476;1260;95504;-60
2022/09/08 10:04:52;;;;;;;;;;;;;;;23.56;27.23;100556.30;89213;1260;80626;-58
2022/09/08 10:07:44;;;;;;;;;;;;;;;23.44;27.30;100557.30;89535;1260;82575;-57
2022/09/08 10:10:21;;;;;;;;;;;;;;;23.41;27.53;100554.63;89539;1260;98765;-56
2022/09/08 10:13:00;;;;;;;;;;;;;;;23.26;27.46;100554.05;89563;1260;88115;-57
2022/09/08 10:15:39;;;;;;;;;;;;;;;22.99;27.55;100554.52;89559;1260;93123;-56
2022/09/08 10:18:22;;;;;;;;;;;;;;;22.81;27.54;100558.55;89581;1260;80734;-54
2022/09/08 10:20:59;;;;;;;;;;;;;;;22.63;27.53;100557.69;88994;1267;82112;-58
2022/09/08 10:23:48;;;;;;;;;;;;;;;22.63;27.81;100553.99;89332;1260;99598;-60
2022/09/08 10:26:16;;;;;;;;;;;;;;;22.69;27.98;100555.27;89490;1260;88277;-57
2022/09/08 10:29:02;;;;;;;;;;;;;;;22.57;28.20;100558.02;89492;1260;92645;-55
2022/09/08 10:31:52;;;;;;;;;;;;;;;22.62;28.47;100562.41;89500;1260;80079;-55
2022/09/08 10:34:30;;;;;;;;;;;;;;;22.99;28.55;100563.27;89249;1260;82075;-60
2022/09/08 10:36:52;;;;;;;;;;;;;;;23.11;28.19;100558.77;89510;1260;99880;-60
2022/09/08 10:39:10;;;;;;;;;;;;;;;23.05;28.15;100565.19;89538;1260;88394;-55
2022/09/08 10:41:54;;;;;;;;;;;;;;;23.04;28.30;100561.45;89481;1260;94728;-53
2022/09/08 10:44:23;;;;;;;;;;;;;;;23.13;27.99;100552.73;89479;1260;79539;-54
2022/09/08 10:46:52;;;;;;;;;;;;;;;23.05;28.33;100550.81;89481;1260;82480;-55
2022/09/08 10:49:25;;;;;;;;;;;;;;;23.16;28.50;100551.13;89512;1260;99115;-55
2022/09/08 10:51:53;;;;;;;;;;;;;;;23.07;28.45;100545.25;89274;1262;88293;-55
2022/09/08 10:54:15;;;;;;;;;;;;;;;23.11;28.64;100544.88;89515;1260;94987;-55
2022/09/08 10:56:27;;;;;;;;;;;;;;;23.20;28.34;100537.59;89509;1260;80714;-57